Aviation Digital Data Service (ADDS)

Output produced by METARs form (1412 UTC 08 May 2021)
found at http://aviationweather.gov/metar/data/
 
KGGG 081120Z 0812/0912 16006KT P6SM FEW250 
     FM081600 18019G26KT P6SM SKC 
     FM082000 18019G26KT P6SM BKN250 
     FM090500 17020G28KT P6SM OVC025